createdAt,value
2022-08-29T00:03:58.862Z,100.00
2022-08-29T00:09:02.463Z,100.00
2022-08-29T00:14:07.517Z,100.00
2022-08-29T00:19:24.770Z,100.00
2022-08-29T00:24:28.254Z,100.00
2022-08-29T00:29:33.150Z,100.00
2022-08-29T00:34:36.757Z,100.00
2022-08-29T00:39:40.548Z,100.00
2022-08-29T00:44:46.181Z,100.00
2022-08-29T00:49:52.827Z,100.00
2022-08-29T00:54:57.761Z,100.00
2022-08-29T01:00:03.099Z,100.00
2022-08-29T01:05:07.924Z,100.00
2022-08-29T01:10:33.507Z,100.00
2022-08-29T01:15:41.448Z,100.00
2022-08-29T01:20:58.699Z,100.00
2022-08-29T01:26:05.478Z,100.00
2022-08-29T01:31:12.483Z,100.00
2022-08-29T01:36:19.153Z,100.00
2022-08-29T01:41:24.081Z,100.00
2022-08-29T01:46:29.972Z,100.00
2022-08-29T01:51:33.567Z,100.00
2022-08-29T01:56:41.291Z,100.00
2022-08-29T02:01:50.610Z,100.00
2022-08-29T02:06:56.205Z,100.00
2022-08-29T02:12:07.124Z,100.00
2022-08-29T02:17:10.772Z,100.00
2022-08-29T02:22:15.337Z,100.00
2022-08-29T02:27:20.317Z,100.00
2022-08-29T02:32:23.926Z,100.00
2022-08-29T02:37:29.007Z,100.00
2022-08-29T02:42:33.865Z,100.00
2022-08-29T02:47:37.717Z,100.00
2022-08-29T02:52:41.613Z,100.00
2022-08-29T02:57:47.496Z,100.00
2022-08-29T03:02:51.105Z,100.00
2022-08-29T03:07:54.636Z,100.00
2022-08-29T03:12:59.746Z,100.00
2022-08-29T03:18:03.222Z,100.00
2022-08-29T03:23:06.769Z,100.00
2022-08-29T03:28:13.427Z,100.00
2022-08-29T03:33:18.052Z,100.00
2022-08-29T03:38:22.742Z,100.00
2022-08-29T03:43:27.608Z,100.00
2022-08-29T03:48:33.308Z,100.00
2022-08-29T03:53:36.839Z,100.00
2022-08-29T03:58:41.708Z,100.00
2022-08-29T04:03:45.319Z,100.00
2022-08-29T04:08:50.024Z,100.00
2022-08-29T04:13:56.096Z,100.00
2022-08-29T04:19:00.601Z,100.00
2022-08-29T04:24:04.855Z,100.00
2022-08-29T04:29:11.984Z,100.00
2022-08-29T04:34:15.692Z,100.00
2022-08-29T04:39:19.262Z,100.00
2022-08-29T04:44:24.148Z,100.00
2022-08-29T04:49:27.632Z,100.00
2022-08-29T04:54:31.212Z,100.00
2022-08-29T04:59:37.036Z,100.00
2022-08-29T05:04:40.538Z,100.00
2022-08-29T05:09:43.998Z,100.00
2022-08-29T05:14:49.200Z,100.00
2022-08-29T05:19:52.821Z,100.00
2022-08-29T05:24:57.026Z,100.00
2022-08-29T05:30:02.677Z,100.00
2022-08-29T05:35:06.772Z,100.00
2022-08-29T05:40:10.818Z,100.00
2022-08-29T05:45:15.748Z,100.00
2022-08-29T05:50:19.395Z,100.00
2022-08-29T05:55:23.262Z,100.00
2022-08-29T06:00:28.223Z,100.00
2022-08-29T06:05:31.929Z,100.00
2022-08-29T06:10:35.820Z,100.00
2022-08-29T06:15:44.266Z,100.00
2022-08-29T06:20:47.780Z,100.00
2022-08-29T06:25:56.845Z,100.00
2022-08-29T06:31:08.654Z,100.00
2022-08-29T06:36:13.040Z,100.00
2022-08-29T06:41:18.602Z,100.00
2022-08-29T06:46:26.541Z,100.00
2022-08-29T06:51:33.117Z,100.00
2022-08-29T06:56:37.460Z,100.00
2022-08-29T07:01:43.842Z,100.00
2022-08-29T07:06:47.543Z,100.00
2022-08-29T07:11:51.147Z,100.00
2022-08-29T07:16:56.783Z,100.00
2022-08-29T07:22:00.578Z,100.00
2022-08-29T07:27:04.152Z,100.00
2022-08-29T07:32:09.219Z,97.82
2022-08-29T07:37:12.779Z,96.02
2022-08-29T07:42:16.811Z,94.92
2022-08-29T07:47:22.587Z,93.05
2022-08-29T07:52:26.427Z,91.82
2022-08-29T07:57:30.073Z,88.67
2022-08-29T08:02:35.170Z,87.46
2022-08-29T08:07:40.195Z,87.93
2022-08-29T08:12:44.998Z,87.42
2022-08-29T08:17:50.114Z,86.61
2022-08-29T08:22:53.819Z,85.30
2022-08-29T08:27:58.852Z,80.73
2022-08-29T08:33:04.427Z,77.87
2022-08-29T08:38:10.075Z,78.12
2022-08-29T08:43:18.450Z,78.62
2022-08-29T08:48:38.310Z,76.58
2022-08-29T08:53:44.653Z,75.93
2022-08-29T08:58:53.209Z,75.43
2022-08-29T09:04:30.207Z,73.38
2022-08-29T09:09:51.289Z,71.93
2022-08-29T09:15:01.906Z,71.41
2022-08-29T09:20:10.949Z,71.69
2022-08-29T09:25:14.838Z,73.18
2022-08-29T09:30:24.467Z,74.14
2022-08-29T09:35:37.220Z,70.69
2022-08-29T09:40:54.630Z,70.87
2022-08-29T09:46:18.108Z,71.08
2022-08-29T09:51:26.692Z,73.24
2022-08-29T09:56:30.424Z,73.35
2022-08-29T10:01:36.842Z,72.19
2022-08-29T10:06:46.184Z,72.85
2022-08-29T10:11:56.979Z,75.85
2022-08-29T10:17:22.946Z,76.39
2022-08-29T10:22:34.517Z,77.94
2022-08-29T10:27:47.711Z,76.56
2022-08-29T10:33:11.379Z,76.24
2022-08-29T10:38:24.003Z,75.80
2022-08-29T10:43:38.688Z,75.75
2022-08-29T10:48:51.527Z,74.92
2022-08-29T10:54:05.510Z,76.19
2022-08-29T10:59:18.686Z,75.66
2022-08-29T11:04:28.378Z,76.22
2022-08-29T11:09:40.455Z,75.83
2022-08-29T11:15:04.933Z,73.74
2022-08-29T11:20:14.674Z,70.25
2022-08-29T11:25:22.519Z,66.82
2022-08-29T11:30:40.316Z,65.11
2022-08-29T11:36:01.139Z,61.72
2022-08-29T11:41:30.918Z,59.67
2022-08-29T11:46:39.472Z,62.33
2022-08-29T11:51:43.491Z,63.27
2022-08-29T11:56:48.412Z,62.06
2022-08-29T12:02:02.288Z,60.21
2022-08-29T12:07:06.051Z,59.53
2022-08-29T12:12:41.193Z,54.84
2022-08-29T12:18:01.505Z,55.79
2022-08-29T12:23:08.005Z,53.57
2022-08-29T12:28:36.099Z,50.18
2022-08-29T12:34:00.630Z,49.90
2022-08-29T12:39:29.220Z,51.18
2022-08-29T12:44:37.381Z,48.15
2022-08-29T12:49:48.532Z,47.11
2022-08-29T12:54:56.350Z,47.05
2022-08-29T13:00:03.370Z,45.94
2022-08-29T13:05:26.901Z,44.08
2022-08-29T13:10:32.601Z,44.83
2022-08-29T13:15:37.931Z,44.24
2022-08-29T13:20:50.836Z,44.92
2022-08-29T13:25:58.105Z,43.29
2022-08-29T13:31:09.351Z,43.63
2022-08-29T13:36:32.351Z,41.24
2022-08-29T13:41:36.171Z,43.30
2022-08-29T13:46:47.202Z,43.17
2022-08-29T13:51:51.733Z,42.39
2022-08-29T13:56:57.962Z,42.96
2022-08-29T14:02:10.970Z,43.44
2022-08-29T14:07:20.055Z,42.71
2022-08-29T14:12:33.779Z,41.56
2022-08-29T14:17:40.746Z,42.63
2022-08-29T14:22:45.424Z,42.25
2022-08-29T14:27:49.594Z,41.32
2022-08-29T14:32:54.610Z,41.50
2022-08-29T14:37:58.338Z,41.54
2022-08-29T14:43:03.388Z,42.28
2022-08-29T14:48:08.552Z,42.00
2022-08-29T14:53:12.250Z,41.82
2022-08-29T14:58:16.118Z,42.00
2022-08-29T15:03:21.365Z,41.89
2022-08-29T15:08:25.253Z,42.38
2022-08-29T15:13:28.924Z,41.79
2022-08-29T15:19:14.874Z,41.73
2022-08-29T15:23:57.664Z,41.98
2022-08-29T15:29:01.370Z,41.79
2022-08-29T15:34:06.382Z,40.67
2022-08-29T15:39:10.575Z,41.23
2022-08-29T15:44:14.200Z,41.48
2022-08-29T15:49:23.414Z,41.21
2022-08-29T15:54:28.196Z,40.97
2022-08-29T15:59:56.692Z,41.40
2022-08-29T16:04:57.741Z,41.46
2022-08-29T16:10:04.551Z,41.87
2022-08-29T16:15:14.775Z,41.52
2022-08-29T16:20:19.794Z,41.35
2022-08-29T16:25:24.432Z,41.85
2022-08-29T16:30:28.437Z,42.09
2022-08-29T16:35:33.499Z,42.43
2022-08-29T16:40:37.237Z,43.14
2022-08-29T16:45:41.069Z,42.94
2022-08-29T16:50:46.483Z,42.62
2022-08-29T16:55:50.117Z,42.96
2022-08-29T17:00:54.235Z,43.23
2022-08-29T17:05:59.364Z,43.58
2022-08-29T17:11:02.840Z,43.56
2022-08-29T17:16:07.365Z,43.95
2022-08-29T17:21:12.840Z,44.08
2022-08-29T17:26:17.775Z,44.20
2022-08-29T17:31:21.859Z,44.10
2022-08-29T17:36:26.810Z,44.45
2022-08-29T17:41:30.764Z,45.19
2022-08-29T17:46:35.330Z,46.26
2022-08-29T17:51:40.727Z,46.02
2022-08-29T17:56:47.539Z,46.86
2022-08-29T18:01:51.625Z,46.85
2022-08-29T18:06:57.261Z,47.82
2022-08-29T18:12:00.889Z,48.11
2022-08-29T18:17:04.630Z,49.70
2022-08-29T18:22:09.711Z,51.18
2022-08-29T18:27:13.397Z,53.04
2022-08-29T18:32:17.406Z,55.41
2022-08-29T18:37:23.004Z,58.46
2022-08-29T18:42:40.027Z,59.44
2022-08-29T18:47:44.884Z,60.78
2022-08-29T18:52:49.910Z,60.28
2022-08-29T18:57:54.604Z,60.25
2022-08-29T19:03:00.658Z,60.00
2022-08-29T19:08:06.000Z,62.10
2022-08-29T19:13:09.591Z,64.25
2022-08-29T19:18:13.487Z,67.18
2022-08-29T19:23:19.916Z,70.06
2022-08-29T19:28:23.812Z,73.08
2022-08-29T19:33:27.506Z,74.63
2022-08-29T19:38:33.164Z,77.28
2022-08-29T19:43:36.964Z,78.50
2022-08-29T19:48:41.104Z,80.24
2022-08-29T19:53:46.774Z,81.76
2022-08-29T19:58:51.110Z,81.95
2022-08-29T20:03:55.161Z,82.47
2022-08-29T20:09:00.188Z,83.92
2022-08-29T20:14:04.342Z,85.12
2022-08-29T20:19:08.040Z,86.17
2022-08-29T20:24:15.531Z,86.99
2022-08-29T20:29:20.808Z,88.63
2022-08-29T20:34:28.397Z,91.09
2022-08-29T20:39:33.490Z,91.79
2022-08-29T20:44:38.748Z,93.34
2022-08-29T20:49:43.953Z,96.48
2022-08-29T20:54:48.955Z,99.07
2022-08-29T20:59:52.695Z,98.76
2022-08-29T21:05:13.751Z,100.00
2022-08-29T21:10:18.448Z,100.00
2022-08-29T21:15:21.977Z,100.00
2022-08-29T21:20:25.562Z,100.00
2022-08-29T21:25:30.480Z,100.00
2022-08-29T21:30:34.464Z,100.00
2022-08-29T21:35:40.430Z,100.00
2022-08-29T21:40:51.190Z,100.00
2022-08-29T21:45:54.851Z,100.00
2022-08-29T21:50:58.707Z,100.00
2022-08-29T21:56:04.092Z,100.00
2022-08-29T22:01:09.294Z,100.00
2022-08-29T22:06:12.855Z,100.00
2022-08-29T22:11:22.553Z,100.00
2022-08-29T22:16:32.087Z,100.00
2022-08-29T22:21:38.808Z,100.00
2022-08-29T22:26:44.434Z,100.00
2022-08-29T22:31:47.999Z,100.00
2022-08-29T22:36:51.594Z,100.00
2022-08-29T22:41:56.566Z,100.00
2022-08-29T22:47:00.046Z,100.00
2022-08-29T22:52:05.886Z,100.00
2022-08-29T22:57:17.817Z,100.00
2022-08-29T23:02:22.065Z,100.00
2022-08-29T23:07:25.741Z,100.00
2022-08-29T23:12:30.600Z,100.00
2022-08-29T23:17:34.183Z,100.00
2022-08-29T23:22:38.465Z,100.00
2022-08-29T23:27:43.378Z,100.00
2022-08-29T23:32:46.840Z,100.00
2022-08-29T23:37:50.298Z,100.00
2022-08-29T23:42:55.973Z,100.00
2022-08-29T23:48:00.072Z,100.00
2022-08-29T23:53:03.637Z,100.00
2022-08-29T23:58:09.012Z,100.00
